KICL/ICL METAR and TAF weather

Enter ICAO airport designator
Station Type Date Time Source
KICL METAR 2020/01/24 21:15 UTC NOAA

KICL 242115Z AUTO 34014G20KT 6SM BR OVC008 M00/M00 A3000 RMK AO2


Station Type Date Time Source
KICL Decoded METAR 2020/01/24 21:15 UTC NOAA

Clarinda, IA, United States (KICL) 40-43N 095-02W
Jan 24, 2020 - 04:15 PM EST / 2020.01.24 2115 UTC
Wind: from the NNW (340 degrees) at 16 MPH (14 KT) gusting to 23 MPH (20 KT):0
Visibility: 6 mile(s):0
Sky conditions: overcast
Weather: mist
Temperature: 32 F (0 C)
Windchill: 21 F (-6 C):1
Dew Point: 32 F (0 C)
Relative Humidity: 100%
Pressure (altimeter): 30 in. Hg (1015 hPa)
ob: KICL 242115Z AUTO 34014G20KT 6SM BR OVC008 M00/M00 A3000 RMK AO2
cycle: 21

Station Type Date Time Source
KICL TAF UTC NOAA

Error!

Example: see airport list